Playa Del Carmen, ROO, Mexico
Current Conditions -  °F | °C
As of 7:46 AM on Saturday 25 Oct 2014 (Local Time) from MMCZ Reporting Station
Broken Clouds Broken Clouds  
Wind Chill: 72°   Ceiling: 30000
Heat Index: 72°   Visibility: 8mi
Dew Point: 68°   Wind: 12mph
Humidity: 88%   Direction: 350°N
Pressure: 29.96"   Gusts: NA
Location:  20.62°N, 87.07°W
Report Text: MMCZ 251246Z 35010KT 8SM FEW015 BKN300 22/20 A2996 RMK 8/108 SC RTS
Loading
Personal Weather Stations






























Interactive Weather Map New forecast layout! Learn more

10-Day Weather Forecast

Advertisements
Track Severe Weather on mobile